METAR / TAF

La lista dei METAR e dei TAF non è pensata per essere utilizzata per i briefing meteorologici (in particolare per ragioni tecniche non è possibile garantire la sua costante disponibilità e un aggiornamento continuo). Per i briefing meteorologici si consiglia di utilizzare lo skybriefing di Skyguide oppure il TAMSI (piattaforma  di MeteoSvizzera per l’autobriefing per i professionisti dell’aviazione – per informazioni utilizzare il formulario di contatto).

 

METAR Svizzera

METAR     LSZH 151420Z 22002KT 9999 FEW020 06/01 Q1001 NOSIG=
METAR     LSZH 151450Z VRB01KT 9999 FEW020 06/01 Q1001 NOSIG=
METAR     LSGG 151420Z 14003KT 9999 FEW030 08/01 Q1000 NOSIG=
METAR     LSGG 151450Z 08003KT 9999 FEW030 08/01 Q1000 NOSIG=
METAR     LFSB 151500Z VRB02KT 9999 FEW020 BKN220 08/03 Q1001 NOSIG=
METAR     LSZB 151420Z 18003KT 9999 FEW018 07/02 Q1000 NOSIG=
METAR     LSZB 151450Z 17003KT 9999 FEW018 06/03 Q1000 NOSIG=
METAR     LSZA 151420Z VRB02KT 7000 -RA VCSH FEW004 SCT028CB BKN035
               08/08 Q1002 NOSIG=
METAR     LSZA 151450Z VRB02KT 6000 -RA VCSH FEW004 SCT028TCU
               BKN033 08/08 Q1002 NOSIG=
METAR     LSZG 151420Z VRB02KT 9999 FEW020 06/02 Q1001 NOSIG=
METAR     LSZG 151450Z 15001KT 9999 FEW020 06/02 Q1001 NOSIG=
METAR     LSZR 151420Z VRB02KT CAVOK 06/03 Q1001 NOSIG RMK L=
METAR     LSZR 151450Z VRB02KT CAVOK 06/03 Q1001 NOSIG RMK L=
METAR     LSGS 151420Z VRB01KT 9999 SCT030 BKN160 07/03 Q1000=
METAR     LSGS 151450Z 25003KT 9999 SCT025 BKN160 06/03 Q1000=
METAR     LSGC 151420Z 13006KT 090V160 9999 SCT020 03/00 Q0999=
METAR     LSGC 151450Z 14003KT 100V170 9999 SCT020 03/M00 Q0999=
METAR     LSZC 151420Z AUTO 20003KT 160V240 9999 OVC027 06/03 Q1001=
METAR     LSZC 151450Z AUTO 25002KT 9999 FEW020 OVC031 06/03 Q1001=
METAR     LSZL 151420Z VRB02KT 5000 RA FEW005 SCT015 OVC030 06/06
               Q1003 RMK WHT=
METAR     LSZL 151450Z NIL=
METAR     LSZS 151420Z VRB05KT 1200 -SN SCT010 OVC026 M01/M02 Q1001
               RMK P=
METAR     LSZS 151450Z 03003KT 0500 SN SCT006 OVC015 M02/M02 Q1001
               RMK Q=
METAR RRA LSMA 151420Z 06006KT 9999 FEW024 OVC030 06/03 Q1001 RMK
               BLU=
METAR     LSMA 151450Z VRB02KT 9999 FEW028 BKN032 06/03 Q1001 RMK
               BLU=
METAR RRA LSMD 151420Z VRB02KT CAVOK 06/01 Q1001 RMK BLU=
METAR     LSMD 151450Z 00000KT 9999 FEW160 06/00 Q1001 RMK BLU+=
METAR     LSME 151420Z NIL=
METAR     LSME 151450Z 00000KT 9999 FEW041 BKN083 06/02 Q1001 RMK
               BLU=
METAR RRA LSMM 151420Z AUTO 02003KT 310V090 9999NDV FEW013 BKN015
               OVC032 05/02 Q1000 RMK=
METAR     LSMM 151450Z AUTO 03007KT 350V070 9999NDV FEW016 OVC019
               06/02 Q1000 RMK=
METAR     LSMP 151420Z 01004KT 330V030 9999 SCT031 BKN037 07/03
               Q1000 RMK BLU=
METAR     LSMP 151450Z 06006KT 030V100 9999 FEW035 07/03 Q1000 RMK
               BLU+=
aggiornamento venerdì 15 novembre 2019 ore 16:19

TAF Svizzera

TAF     LSZH 151125Z 1512/1618 VRB03KT 9999 FEW020 SCT025
             TX07/1513Z TN00/1606Z TX06/1613Z BECMG 1600/1603 4000
             BR BKN010 BECMG 1609/1612 8000 SCT013=
TAF     LSGG 151125Z 1512/1618 23005KT 9999 FEW030 TX06/1514Z
             TN02/1606Z TX06/1614Z PROB30 TEMPO 1604/1608 4500 BR
             BKN014=
TAF     LFSB 151106Z 1512/1612 14003KT 9999 SCT020 BKN250 PROB40
             1600/1607 4500 BR FEW003=
TAF     LSGS 151125Z 1512/1521 VRB03KT 9999 SCT012 BKN030 BECMG
             1512/1514 SCT060=
TAF AAA LSZA 151230Z 1512/1521 VRB03KT 9999 FEW004 SCT030 BKN035
             TEMPO 1512/1518 SHRA=
TAF     LSZA 151125Z 1512/1521 VRB03KT 9000 FEW004 SCT010 BKN030
             PROB40 TEMPO 1514/1518 RA=
TAF     LSZB 151125Z 1512/1521 VRB03KT 9999 SCT011=
TAF     LSZG 151125Z 1512/1521 23007KT 9999 FEW010 SCT025 TEMPO
             1513/1519 CAVOK=
TAF     LSZL 151125Z 1512/1521 VRB03KT 8000 -SHRA FEW010 BKN040=
TAF     LSZR 151125Z 1512/1521 VRB03KT 9999 FEW045=
TAF     LSGC 151125Z 1512/1521 25004KT 9999 FEW045 BECMG 1516/1518
             CAVOK=
TAF     LSZC 151125Z 1512/1521 VRB05KT 9999 FEW015 BKN030 PROB40
             TEMPO 1514/1521 CAVOK=
TAF     LSZS 151125Z 1512/1521 VRB05KT 1600 -SN BKN008 TXM01/1513Z
             TEMPO 1512/1516 0700 SN VV003 TEMPO 1516/1521 7000
             NSW SCT008=
TAF     LSMA 150925Z 1510/1616 VRB03KT 9999 FEW015 BKN040 PROB40
             TEMPO 1510/1516 04010KT PROB40 1522/1609 4000 BR
             BKN008 PROB40 TEMPO 1611/1616 04010KT=
TAF     LSMD 150925Z 1510/1616 VRB03KT 9999 FEW020 BKN050 PROB40
             TEMPO 1513/1520 CAVOK BECMG 1522/1601 4000 BR SCT005
             PROB40 1601/1610 BKN008 BECMG 1610/1612 9999 SCT008
             TEMPO 1611/1616 CAVOK=
TAF     LSME 150925Z 1510/1616 VRB03KT 9999 FEW020 BKN040 PROB40
             TEMPO 1513/1520 CAVOK BECMG 1522/1601 4000 BR SCT005
             PROB40 1601/1610 BKN008 BECMG 1610/1612 9999 SCT008
             PROB40 TEMPO 1611/1616 CAVOK=
TAF     LSMM 150925Z 1510/1616 27005KT 9999 FEW015 BKN030 PROB40
             1522/1608 4000 BR BKN005 PROB40 TEMPO 1608/1616
             -SHRA=
TAF     LSMP 150925Z 1510/1616 23006KT 9999 FEW020 BECMG 1604/1606
             4500 BKN014 BECMG 1608/1610 9999 SCT030=
aggiornamento venerdì 15 novembre 2019 ore 14:02